Time;durP1;ratioP1;P1;durP2;ratioP2;P2;SDS_P1;SDS_P2;PMS_P1;PMS_P2;Temp;Humidity;BMP_temperature;BMP_pressure;BME280_temperature;BME280_humidity;BME280_pressure;Samples;Min_cycle;Max_cycle;Signal;HPM_P1;HPM_P2
2023/05/11 00:00:22;;;;;;;;;;;;;;;20.52;67.81;98091.75;2066527;28;20266;-52
2023/05/11 00:01:23;;;;;;;21.40;12.10;;;;;;;20.57;66.95;98085.72;2070350;28;20010;-54
2023/05/11 00:02:24;;;;;;;22.65;12.45;;;;;;;20.59;66.90;98084.44;2068679;28;20841;-51
2023/05/11 00:03:25;;;;;;;22.00;13.20;;;;;;;20.60;67.30;98080.69;2069023;28;20589;-52
2023/05/11 00:04:27;;;;;;;;;;;;;;;20.51;67.13;98082.06;2070751;28;20045;-52
2023/05/11 00:05:27;;;;;;;15.77;11.05;;;;;;;20.55;67.37;98083.25;2069795;28;19970;-52
2023/05/11 00:06:29;;;;;;;;;;;;;;;20.47;67.68;98084.34;2070505;28;20236;-52
2023/05/11 00:07:29;;;;;;;22.88;12.63;;;;;;;20.53;67.30;98085.34;2058536;28;19932;-54
2023/05/11 00:08:31;;;;;;;;;;;;;;;20.47;67.09;98080.84;2068764;28;21984;-54
2023/05/11 00:09:32;;;;;;;18.35;10.23;;;;;;;20.50;67.43;98078.53;2068291;28;20346;-54
2023/05/11 00:10:33;;;;;;;23.48;12.32;;;;;;;20.56;67.75;98079.53;2072416;28;20040;-52
2023/05/11 00:11:35;;;;;;;20.60;12.38;;;;;;;20.59;67.43;98079.06;2067690;28;21042;-52
2023/05/11 00:12:37;;;;;;;21.60;12.48;;;;;;;20.60;66.97;98085.25;2067818;28;20080;-51
2023/05/11 00:13:37;;;;;;;21.38;12.57;;;;;;;20.61;67.48;98076.94;2065355;28;20048;-51
2023/05/11 00:14:39;;;;;;;;;;;;;;;20.51;67.00;98079.34;2070117;28;20106;-53
2023/05/11 00:15:40;;;;;;;18.13;12.13;;;;;;;20.53;67.47;98079.97;2067835;28;20011;-52
2023/05/11 00:16:42;;;;;;;25.05;12.85;;;;;;;20.56;67.72;98076.81;2068604;28;21146;-51
2023/05/11 00:17:42;;;;;;;18.63;11.18;;;;;;;20.58;67.51;98077.41;2067667;28;20052;-52
2023/05/11 00:18:44;;;;;;;;;;;;;;;20.51;67.38;98076.66;2068906;28;20048;-52
2023/05/11 00:19:44;;;;;;;;;;;;;;;20.44;67.56;98084.81;2069151;28;19975;-53
2023/05/11 00:20:46;;;;;;;17.33;11.80;;;;;;;20.50;68.16;98083.06;2069952;28;19933;-56
2023/05/11 00:21:47;;;;;;;22.27;11.70;;;;;;;20.55;68.04;98075.16;2068222;28;20450;-53
2023/05/11 00:22:48;;;;;;;;;;;;;;;20.47;67.77;98081.66;2070008;28;20061;-52
2023/05/11 00:23:49;;;;;;;17.20;10.63;;;;;;;20.51;68.01;98071.28;2066928;28;19966;-52
2023/05/11 00:24:50;;;;;;;18.65;12.23;;;;;;;20.56;68.23;98068.75;2067016;28;20045;-53
2023/05/11 00:25:51;;;;;;;17.70;11.77;;;;;;;20.59;68.13;98067.44;2067838;28;20092;-53
2023/05/11 00:26:54;;;;;;;;;;;;;;;20.50;67.76;98066.91;2070391;28;20045;-51
2023/05/11 00:27:55;;;;;;;16.42;10.43;;;;;;;20.55;67.90;98074.34;2069991;28;19970;-54
2023/05/11 00:28:56;;;;;;;;;;;;;;;20.49;67.60;98074.19;2068580;28;20487;-54
2023/05/11 00:29:57;;;;;;;20.67;12.10;;;;;;;20.53;68.12;98074.56;2069016;28;19931;-53
2023/05/11 00:30:58;;;;;;;;;;;;;;;20.47;67.35;98070.88;2070776;28;20060;-52
2023/05/11 00:31:59;;;;;;;30.40;11.13;;;;;;;20.52;68.61;98075.59;2070685;28;20002;-51
2023/05/11 00:33:00;;;;;;;22.58;12.55;;;;;;;20.56;68.05;98068.75;2065734;28;20480;-52
2023/05/11 00:34:01;;;;;;;19.05;11.63;;;;;;;20.59;68.20;98070.13;2068257;28;20467;-53
2023/05/11 00:35:02;;;;;;;;;;;;;;;20.50;67.91;98075.00;2069002;28;20049;-53
2023/05/11 00:36:04;;;;;;;23.58;11.73;;;;;;;20.53;68.00;98064.63;2072592;28;20003;-54
2023/05/11 00:37:05;;;;;;;21.83;12.05;;;;;;;20.57;67.90;98067.69;2067023;28;20053;-54
2023/05/11 00:38:06;;;;;;;18.90;12.02;;;;;;;20.59;68.17;98067.44;2065879;28;20558;-53
2023/05/11 00:39:07;;;;;;;;;;;;;;;20.53;68.16;98069.19;2066510;28;20086;-50
2023/05/11 00:40:09;;;;;;;19.92;10.40;;;;;;;20.55;68.40;98069.78;2068271;28;19963;-50
2023/05/11 00:41:10;;;;;;;22.55;12.57;;;;;;;20.57;67.71;98065.00;2067878;28;20731;-51
2023/05/11 00:42:12;;;;;;;21.25;11.02;;;;;;;20.60;67.91;98063.72;2067513;28;22455;-53
2023/05/11 00:43:14;;;;;;;15.30;10.18;;;;;;;20.59;67.88;98065.59;2067262;28;20111;-53
2023/05/11 00:44:15;;;;;;;18.08;11.93;;;;;;;20.59;68.43;98057.50;2069876;28;20453;-51
2023/05/11 00:45:16;;;;;;;;;;;;;;;20.52;67.99;98060.25;2067571;28;20511;-51
2023/05/11 00:46:17;;;;;;;16.00;10.50;;;;;;;20.55;67.84;98059.00;2066625;28;19981;-52
2023/05/11 00:47:19;;;;;;;19.98;11.50;;;;;;;20.59;68.16;98057.50;2069369;28;20055;-54
2023/05/11 00:48:20;;;;;;;15.75;11.13;;;;;;;20.60;68.61;98058.31;2066780;28;20102;-53
2023/05/11 00:49:22;;;;;;;17.98;10.55;;;;;;;20.62;68.03;98051.66;2067952;28;20061;-52
2023/05/11 00:50:23;;;;;;;23.77;11.73;;;;;;;20.63;67.29;98057.84;2068860;28;20049;-50
2023/05/11 00:51:25;;;;;;;21.40;11.48;;;;;;;20.62;68.40;98048.16;2070713;28;20100;-55
2023/05/11 00:52:26;;;;;;;18.45;11.07;;;;;;;20.62;68.11;98053.53;2066332;28;20098;-51
2023/05/11 00:53:27;;;;;;;16.58;10.93;;;;;;;20.62;68.24;98056.22;2066683;28;20084;-51
2023/05/11 00:54:29;;;;;;;19.48;11.73;;;;;;;20.62;67.90;98057.03;2069229;28;20495;-52
2023/05/11 00:55:30;;;;;;;17.23;11.50;;;;;;;20.61;68.31;98060.78;2068434;28;20171;-50
2023/05/11 00:56:31;;;;;;;19.65;10.60;;;;;;;20.61;68.49;98052.69;2066132;28;20078;-53
2023/05/11 00:57:35;;;;;;;;;;;;;;;20.51;68.29;98060.50;2070259;28;20060;-51
2023/05/11 00:58:36;;;;;;;19.00;10.80;;;;;;;20.55;68.51;98050.09;2067472;28;19921;-50
2023/05/11 00:59:38;;;;;;;19.27;11.68;;;;;;;20.58;68.68;98044.25;2068533;28;20051;-53
2023/05/11 01:00:39;;;;;;;16.95;11.23;;;;;;;20.59;68.59;98045.88;2068657;28;20050;-53
2023/05/11 01:01:41;;;;;;;21.42;11.18;;;;;;;20.60;68.10;98042.97;2069239;28;20167;-54
2023/05/11 01:02:42;;;;;;;19.38;10.73;;;;;;;20.60;67.89;98053.75;2068715;28;20082;-51
2023/05/11 01:03:43;;;;;;;;;;;;;;;20.50;68.34;98053.44;2073970;28;20570;-54
2023/05/11 01:04:44;;;;;;;17.83;10.82;;;;;;;20.52;68.51;98052.16;2070383;28;19986;-53
2023/05/11 01:05:48;;;;;;;;;;;;;;;20.44;67.90;98052.50;2068424;28;20061;-57
2023/05/11 01:06:57;;;;;;;16.08;11.27;;;;;;;20.51;68.51;98061.31;2076439;28;19978;-53
2023/05/11 01:08:06;;;;;;;18.15;10.85;;;;;;;20.54;68.24;98054.69;2076599;28;20131;-53
2023/05/11 01:09:17;;;;;;;18.40;11.23;;;;;;;20.56;67.81;98046.34;2068086;28;22165;-51
2023/05/11 01:10:27;;;;;;;16.70;10.90;;;;;;;20.56;67.98;98052.59;2067125;28;20570;-51
2023/05/11 01:11:36;;;;;;;21.92;11.70;;;;;;;20.56;68.63;98057.13;2068808;28;20504;-51
2023/05/11 01:12:48;;;;;;;16.90;10.80;;;;;;;20.57;67.58;98054.22;2066107;28;20588;-52
2023/05/11 01:13:52;;;;;;;16.10;9.88;;;;;;;20.59;68.25;98059.34;2067044;28;20053;-50
2023/05/11 01:15:01;;;;;;;16.55;10.73;;;;;;;20.58;67.58;98058.53;2066694;28;20052;-53
2023/05/11 01:16:07;;;;;;;19.63;10.57;;;;;;;20.59;68.41;98060.19;2068933;28;20054;-51
2023/05/11 01:17:16;;;;;;;17.23;10.65;;;;;;;20.59;67.97;98057.50;2070920;28;20056;-53
2023/05/11 01:18:23;;;;;;;16.60;9.90;;;;;;;20.58;67.67;98072.00;2066800;28;21341;-54
2023/05/11 01:19:39;;;;;;;17.63;10.40;;;;;;;20.56;67.64;98060.66;2069003;28;20037;-54
2023/05/11 01:20:42;;;;;;;17.92;9.85;;;;;;;20.56;68.17;98071.44;2076721;28;20053;-50
2023/05/11 01:21:47;;;;;;;16.95;10.40;;;;;;;20.56;67.86;98071.44;2077125;28;20045;-51
2023/05/11 01:23:05;;;;;;;17.58;10.57;;;;;;;20.56;67.55;98066.06;2075960;28;20742;-53
2023/05/11 01:24:31;;;;;;;16.48;11.00;;;;;;;20.53;67.64;98064.63;2076919;28;20128;-50
2023/05/11 01:25:52;;;;;;;16.35;10.38;;;;;;;20.53;68.09;98066.47;2077220;28;20056;-51
2023/05/11 01:27:07;;;;;;;12.98;9.82;;;;;;;20.52;67.81;98067.50;2075210;28;20053;-53
2023/05/11 01:28:35;;;;;;;13.77;10.23;;;;;;;20.54;67.65;98076.22;2076756;28;20064;-50
2023/05/11 01:30:09;;;;;;;16.52;10.75;;;;;;;20.52;67.84;98078.28;2078911;28;20053;-51
2023/05/11 01:31:14;;;;;;;16.30;9.95;;;;;;;20.52;68.28;98080.97;2062651;28;20045;-52
2023/05/11 01:32:18;;;;;;;23.83;10.70;;;;;;;20.55;68.17;98082.44;2076750;28;20053;-55
2023/05/11 01:33:26;;;;;;;15.55;10.68;;;;;;;20.54;68.37;98081.63;2076697;28;20102;-51
2023/05/11 01:34:33;;;;;;;16.30;9.20;;;;;;;20.55;67.49;98082.44;2077576;28;20091;-57
2023/05/11 01:35:38;;;;;;;22.02;10.77;;;;;;;20.54;67.80;98078.94;2075070;28;20486;-55
2023/05/11 01:36:49;;;;;;;15.38;9.63;;;;;;;20.53;67.70;98082.66;2074037;28;20448;-54
2023/05/11 01:37:53;;;;;;;18.60;9.80;;;;;;;20.54;67.78;98081.63;2077688;28;20095;-57
2023/05/11 01:39:00;;;;;;;17.33;8.55;;;;;;;20.53;68.44;98083.50;2075126;28;20049;-54
2023/05/11 01:40:09;;;;;;;17.75;10.95;;;;;;;20.54;68.31;98078.94;2074321;28;20080;-53
2023/05/11 01:41:14;;;;;;;18.42;11.25;;;;;;;20.52;67.40;98079.09;2076019;28;20514;-56
2023/05/11 01:42:20;;;;;;;16.33;10.60;;;;;;;20.52;67.50;98080.97;2074945;28;20053;-54
2023/05/11 01:43:25;;;;;;;18.42;10.15;;;;;;;20.55;68.09;98085.13;2076299;28;20049;-52
2023/05/11 01:44:29;;;;;;;16.65;10.07;;;;;;;20.55;67.98;98082.44;2075719;28;20049;-52
2023/05/11 01:45:34;;;;;;;18.17;10.35;;;;;;;20.55;68.06;98082.44;2073838;28;20152;-56
2023/05/11 01:46:37;;;;;;;17.33;9.73;;;;;;;20.53;67.90;98079.97;2076976;28;20045;-51
2023/05/11 01:47:41;;;;;;;18.42;11.35;;;;;;;20.55;67.56;98080.56;2075324;28;20131;-56
2023/05/11 01:48:48;;;;;;;13.77;9.25;;;;;;;20.54;67.37;98081.63;2076797;28;20069;-58
2023/05/11 01:49:52;;;;;;;18.17;10.25;;;;;;;20.53;67.90;98075.41;2071092;28;21575;-55
2023/05/11 01:50:55;;;;;;;15.75;9.52;;;;;;;20.54;67.65;98078.94;2067772;28;20064;-56
2023/05/11 01:51:58;;;;;;;13.80;9.05;;;;;;;20.55;68.22;98087.81;2069483;28;20637;-54
2023/05/11 01:53:01;;;;;;;17.65;10.02;;;;;;;20.54;67.86;98087.00;2067288;28;20579;-58
2023/05/11 01:54:07;;;;;;;15.93;10.85;;;;;;;20.55;68.13;98091.34;2066334;28;20100;-52
2023/05/11 01:55:10;;;;;;;16.33;9.32;;;;;;;20.55;67.55;98083.25;2064721;28;20049;-56
2023/05/11 01:56:12;;;;;;;15.45;8.65;;;;;;;20.53;68.04;98082.66;2069305;28;20052;-56
2023/05/11 01:57:15;;;;;;;18.85;10.35;;;;;;;20.53;68.10;98083.50;2067524;28;20086;-55
2023/05/11 01:58:18;;;;;;;17.48;10.23;;;;;;;20.53;67.92;98082.66;2066397;28;20064;-58
2023/05/11 01:59:19;;;;;;;13.68;9.90;;;;;;;20.54;67.79;98087.00;2069692;28;21055;-53
2023/05/11 02:00:21;;;;;;;13.70;9.15;;;;;;;20.55;67.86;98085.94;2067120;28;20423;-55
2023/05/11 02:01:23;;;;;;;13.65;9.30;;;;;;;20.54;68.12;98092.41;2068087;28;20062;-51
2023/05/11 02:02:28;;;;;;;18.05;9.70;;;;;;;20.54;68.26;98081.63;2065863;28;20042;-57
2023/05/11 02:03:31;;;;;;;17.98;8.77;;;;;;;20.52;68.18;98083.69;2066413;28;20057;-54
2023/05/11 02:04:35;;;;;;;13.25;9.40;;;;;;;20.52;68.29;98084.50;2067185;28;20083;-53
2023/05/11 02:05:38;;;;;;;15.38;9.20;;;;;;;20.50;67.58;98083.94;2068065;28;20037;-60
2023/05/11 02:06:41;;;;;;;15.45;10.20;;;;;;;20.51;67.96;98082.88;2071043;28;20088;-54
2023/05/11 02:07:43;;;;;;;17.95;9.27;;;;;;;20.51;68.14;98080.16;2071178;28;20141;-52
2023/05/11 02:08:45;;;;;;;12.60;9.20;;;;;;;20.54;67.81;98087.00;2070758;28;21353;-51
2023/05/11 02:09:48;;;;;;;13.32;8.95;;;;;;;20.51;67.69;98077.47;2069344;28;20052;-57
2023/05/11 02:10:52;;;;;;;15.73;9.38;;;;;;;20.51;68.07;98076.66;2071415;28;20072;-54
2023/05/11 02:11:56;;;;;;;18.88;9.93;;;;;;;20.51;67.67;98076.66;2069506;28;20059;-53
2023/05/11 02:12:59;;;;;;;15.32;9.18;;;;;;;20.50;67.76;98081.22;2069697;28;20646;-52
2023/05/11 02:14:01;;;;;;;16.13;9.27;;;;;;;20.52;68.24;98078.28;2068293;28;20552;-55
2023/05/11 02:15:03;;;;;;;15.27;9.20;;;;;;;20.51;67.54;98071.28;2068557;28;20100;-53
2023/05/11 02:16:07;;;;;;;19.55;9.02;;;;;;;20.51;67.99;98071.28;2068759;28;20109;-53
2023/05/11 02:17:09;;;;;;;14.13;9.15;;;;;;;20.50;67.83;98073.16;2069572;28;20588;-54
2023/05/11 02:18:13;;;;;;;14.77;9.23;;;;;;;20.49;67.52;98074.19;2069828;28;20634;-48
2023/05/11 02:19:17;;;;;;;17.73;9.13;;;;;;;20.48;67.82;98072.56;2070204;28;20060;-53
2023/05/11 02:20:18;;;;;;;13.80;9.00;;;;;;;20.50;67.92;98070.47;2071428;28;20100;-51
2023/05/11 02:21:21;;;;;;;16.17;9.57;;;;;;;20.50;67.84;98075.00;2072172;28;20052;-56
2023/05/11 02:22:23;;;;;;;19.27;8.38;;;;;;;20.49;68.07;98074.19;2074780;28;20052;-57
2023/05/11 02:23:26;;;;;;;12.10;8.85;;;;;;;20.51;67.89;98076.66;2072924;28;20050;-52
2023/05/11 02:24:29;;;;;;;13.38;8.43;;;;;;;20.49;67.52;98076.06;2072046;28;20088;-53
2023/05/11 02:25:32;;;;;;;14.65;8.88;;;;;;;20.50;68.09;98072.31;2070926;28;20068;-54
2023/05/11 02:26:33;;;;;;;14.35;8.73;;;;;;;20.51;67.70;98073.97;2069052;28;20057;-59
2023/05/11 02:27:34;;;;;;;;;;;;;;;20.39;68.55;98067.69;2070974;28;20049;-54
2023/05/11 02:28:35;;;;;;;15.18;9.68;;;;;;;20.43;68.47;98071.59;2068781;28;20023;-55
2023/05/11 02:29:37;;;;;;;;;;;;;;;20.35;68.39;98074.59;2070389;28;20151;-57
2023/05/11 02:30:39;;;;;;;;;;;;;;;20.28;68.62;98074.69;2067137;28;19936;-49
2023/05/11 02:31:46;;;;;;;13.85;9.45;;;;;;;20.36;68.69;98074.38;2072508;28;19920;-51
2023/05/11 02:32:50;;;;;;;17.23;9.70;;;;;;;20.41;68.30;98074.50;2071810;28;20110;-59
2023/05/11 02:33:55;;;;;;;17.55;8.98;;;;;;;20.43;67.67;98076.97;2067737;28;21315;-58
2023/05/11 02:35:00;;;;;;;15.15;8.90;;;;;;;20.43;68.08;98069.72;2070288;28;20057;-55
2023/05/11 02:36:03;;;;;;;13.77;9.27;;;;;;;20.45;68.12;98082.97;2069904;28;20513;-56
2023/05/11 02:37:08;;;;;;;15.25;9.73;;;;;;;20.45;67.81;98081.09;2070078;28;20053;-55
2023/05/11 02:38:12;;;;;;;13.57;9.05;;;;;;;20.46;67.95;98073.81;2073194;28;20045;-58
2023/05/11 02:39:18;;;;;;;13.00;8.75;;;;;;;20.45;67.64;98081.09;2068739;28;20052;-57
2023/05/11 02:40:26;;;;;;;13.60;8.90;;;;;;;20.46;67.63;98082.72;2071418;28;20064;-50
2023/05/11 02:41:28;;;;;;;13.05;8.07;;;;;;;20.47;67.82;98086.22;2067851;28;20119;-52
2023/05/11 02:42:34;;;;;;;17.55;8.63;;;;;;;20.45;67.42;98082.97;2069999;28;20675;-53
2023/05/11 02:43:39;;;;;;;14.38;8.90;;;;;;;20.47;68.37;98086.22;2068765;28;20049;-55
2023/05/11 02:44:49;;;;;;;15.95;8.43;;;;;;;20.45;68.01;98080.28;2068631;28;20095;-55
2023/05/11 02:45:58;;;;;;;12.95;8.73;;;;;;;20.45;68.50;98086.47;2068787;28;20041;-54
2023/05/11 02:47:02;;;;;;;14.13;8.18;;;;;;;20.44;68.04;98086.69;2068817;28;20122;-55
2023/05/11 02:48:07;;;;;;;18.42;9.68;;;;;;;20.45;67.66;98082.97;2068400;28;20049;-57
2023/05/11 02:49:13;;;;;;;14.70;7.93;;;;;;;20.44;67.96;98086.69;2070669;28;20822;-49
2023/05/11 02:50:17;;;;;;;12.50;8.73;;;;;;;20.44;68.04;98084.00;2070328;28;20520;-52
2023/05/11 02:51:24;;;;;;;11.73;7.93;;;;;;;20.45;67.55;98088.34;2074709;28;20139;-54
2023/05/11 02:52:27;;;;;;;14.05;9.32;;;;;;;20.45;67.88;98077.59;2070044;28;20102;-56
2023/05/11 02:53:31;;;;;;;17.60;8.48;;;;;;;20.45;67.88;98078.41;2071724;28;20048;-50
2023/05/11 02:54:33;;;;;;;11.48;8.27;;;;;;;20.43;67.58;98085.06;2068193;28;20052;-52
2023/05/11 02:55:34;;;;;;;12.18;8.10;;;;;;;20.45;68.36;98082.97;2077343;28;20044;-51
2023/05/11 02:56:35;;;;;;;12.90;7.35;;;;;;;20.45;68.51;98089.19;2072413;28;20053;-56
2023/05/11 02:57:38;;;;;;;11.90;7.97;;;;;;;20.47;68.30;98088.94;2071495;28;20065;-54
2023/05/11 02:58:39;;;;;;;14.40;8.65;;;;;;;20.46;68.18;98085.41;2067884;28;21186;-52
2023/05/11 02:59:41;;;;;;;17.70;8.93;;;;;;;20.46;68.16;98084.59;2070904;28;20056;-51
2023/05/11 03:00:42;;;;;;;9.32;7.60;;;;;;;20.45;67.75;98082.97;2066700;28;20045;-54
2023/05/11 03:01:45;;;;;;;;;;;;;;;20.34;67.61;98081.03;2073359;28;20107;-51
2023/05/11 03:02:45;;;;;;;12.13;8.30;;;;;;;20.38;68.32;98087.63;2070628;28;20333;-55
2023/05/11 03:03:47;;;;;;;;;;;;;;;20.28;68.02;98078.22;2077251;28;20091;-53
2023/05/11 03:04:49;;;;;;;11.48;6.93;;;;;;;20.34;68.67;98083.72;2069210;28;20276;-55
2023/05/11 03:05:50;;;;;;;14.88;8.30;;;;;;;20.38;68.38;98080.34;2074173;28;20053;-51
2023/05/11 03:06:51;;;;;;;11.57;8.63;;;;;;;20.40;68.30;98085.53;2069324;28;20056;-54
2023/05/11 03:07:57;;;;;;;13.40;8.90;;;;;;;20.43;68.06;98088.56;2073699;28;20065;-55
2023/05/11 03:08:58;;;;;;;18.30;8.75;;;;;;;20.41;68.42;98084.47;2074854;28;20050;-58
2023/05/11 03:10:00;;;;;;;;;;;;;;;20.31;68.25;98082.34;2067092;28;20064;-53
2023/05/11 03:11:02;;;;;;;16.45;8.63;;;;;;;20.35;68.19;98082.69;2077236;28;19948;-49
2023/05/11 03:12:04;;;;;;;12.32;8.43;;;;;;;20.38;67.90;98087.63;2069657;28;20136;-57
2023/05/11 03:13:06;;;;;;;12.43;7.90;;;;;;;20.39;67.99;98086.56;2071124;28;21070;-52
2023/05/11 03:14:09;;;;;;;10.80;8.05;;;;;;;20.39;67.87;98081.16;2074365;28;20057;-55
2023/05/11 03:15:11;;;;;;;16.52;7.00;;;;;;;20.40;68.19;98088.22;2074842;28;20063;-53
2023/05/11 03:16:14;;;;;;;19.55;9.20;;;;;;;20.41;67.83;98087.16;2067411;28;20510;-56
2023/05/11 03:17:15;;;;;;;11.70;7.60;;;;;;;20.39;67.40;98083.84;2070487;28;20049;-52
2023/05/11 03:18:19;;;;;;;13.10;8.30;;;;;;;20.40;68.45;98085.53;2063532;28;20103;-55
2023/05/11 03:19:20;;;;;;;10.88;6.80;;;;;;;20.39;67.90;98083.84;2064629;28;20126;-52
2023/05/11 03:20:23;;;;;;;14.10;8.68;;;;;;;20.39;68.15;98083.84;2070662;28;20060;-53
2023/05/11 03:21:26;;;;;;;14.85;7.82;;;;;;;20.38;67.90;98088.44;2077695;28;20045;-55
2023/05/11 03:22:28;;;;;;;13.68;7.90;;;;;;;20.38;67.93;98079.53;2074010;28;20053;-52
2023/05/11 03:23:29;;;;;;;12.75;7.82;;;;;;;20.38;68.25;98083.03;2073981;28;20622;-58
2023/05/11 03:24:31;;;;;;;11.57;7.97;;;;;;;20.38;68.08;98082.22;2076245;28;20055;-52
2023/05/11 03:25:32;;;;;;;12.15;8.02;;;;;;;20.40;68.08;98080.13;2076208;28;20073;-53
2023/05/11 03:26:36;;;;;;;17.77;8.23;;;;;;;20.39;67.75;98078.47;2075258;28;20072;-51
2023/05/11 03:27:40;;;;;;;15.23;8.52;;;;;;;20.38;68.08;98077.66;2075595;28;20138;-50
2023/05/11 03:28:44;;;;;;;12.77;7.57;;;;;;;20.40;67.80;98077.44;2074830;28;20087;-54
2023/05/11 03:29:47;;;;;;;12.55;8.88;;;;;;;20.40;68.20;98077.44;2074974;28;20052;-56
2023/05/11 03:30:51;;;;;;;12.25;7.15;;;;;;;20.40;67.97;98075.56;2076030;28;20052;-52
2023/05/11 03:31:53;;;;;;;13.52;7.70;;;;;;;20.39;67.93;98067.69;2075443;28;20052;-50
2023/05/11 03:32:55;;;;;;;11.38;7.70;;;;;;;20.39;67.57;98070.41;2076606;28;20051;-52
2023/05/11 03:33:56;;;;;;;14.88;8.05;;;;;;;20.37;67.94;98069.81;2075638;28;20098;-51
2023/05/11 03:34:58;;;;;;;16.13;8.40;;;;;;;20.38;68.06;98066.06;2073367;28;20049;-52
2023/05/11 03:36:01;;;;;;;13.52;7.45;;;;;;;20.39;67.80;98067.69;2075567;28;20045;-50
2023/05/11 03:37:05;;;;;;;14.07;7.75;;;;;;;20.38;68.22;98066.88;2073739;28;20049;-52
2023/05/11 03:38:07;;;;;;;15.48;7.20;;;;;;;20.39;68.10;98067.69;2074833;28;20058;-54
2023/05/11 03:39:12;;;;;;;15.45;7.72;;;;;;;20.36;67.81;98058.19;2073835;28;20556;-54
2023/05/11 03:40:14;;;;;;;17.75;7.85;;;;;;;20.37;68.17;98059.06;2074210;28;20560;-55
2023/05/11 03:41:17;;;;;;;18.05;8.10;;;;;;;20.36;68.07;98062.78;2074434;28;20064;-49
2023/05/11 03:42:20;;;;;;;13.50;7.45;;;;;;;20.37;68.11;98059.06;2074233;28;20086;-56
2023/05/11 03:43:23;;;;;;;10.30;7.55;;;;;;;20.38;68.05;98055.28;2073979;28;21364;-52
2023/05/11 03:44:25;;;;;;;16.17;7.50;;;;;;;20.35;68.09;98061.97;2077062;28;20080;-52
2023/05/11 03:45:28;;;;;;;13.07;8.15;;;;;;;20.35;67.88;98059.25;2075432;28;20045;-54
2023/05/11 03:46:31;;;;;;;14.63;8.05;;;;;;;20.35;67.57;98059.25;2075935;28;20545;-50
2023/05/11 03:47:34;;;;;;;17.40;7.00;;;;;;;20.36;67.82;98060.09;2074108;28;20531;-57
2023/05/11 03:48:35;;;;;;;13.70;7.97;;;;;;;20.36;67.79;98062.78;2076160;28;21041;-51
2023/05/11 03:49:38;;;;;;;12.30;7.55;;;;;;;20.35;67.44;98066.53;2075667;28;20140;-54
2023/05/11 03:50:39;;;;;;;13.70;7.70;;;;;;;20.37;68.09;98059.88;2075785;28;20072;-55
2023/05/11 03:51:43;;;;;;;10.63;6.78;;;;;;;20.36;67.57;98068.97;2071659;28;20052;-52
2023/05/11 03:52:44;;;;;;;11.32;7.32;;;;;;;20.36;67.71;98065.47;2069167;28;20674;-52
2023/05/11 03:53:46;;;;;;;;;;;;;;;20.25;68.00;98062.53;2067156;28;20049;-56
2023/05/11 03:54:47;;;;;;;11.15;6.70;;;;;;;20.28;68.30;98067.44;2073472;28;19933;-52
2023/05/11 03:55:48;;;;;;;;;;;;;;;20.21;67.73;98072.09;2070416;28;20053;-53
2023/05/11 03:56:50;;;;;;;11.30;6.38;;;;;;;20.27;68.36;98073.88;2071780;28;19932;-52
2023/05/11 03:57:52;;;;;;;9.43;6.93;;;;;;;20.30;68.27;98073.41;2071801;28;20616;-53
2023/05/11 03:58:53;;;;;;;11.77;6.72;;;;;;;20.35;67.78;98077.31;2066937;28;20071;-57
2023/05/11 03:59:55;;;;;;;13.88;6.55;;;;;;;20.33;67.70;98069.44;2065785;28;20999;-54
2023/05/11 04:00:56;;;;;;;10.57;6.53;;;;;;;20.33;67.87;98068.63;2069730;28;20794;-50
2023/05/11 04:01:58;;;;;;;9.30;6.97;;;;;;;20.34;68.14;98072.94;2068659;28;20061;-54
2023/05/11 04:03:03;;;;;;;11.18;6.97;;;;;;;20.34;67.73;98070.25;2068536;28;20045;-54
2023/05/11 04:04:05;;;;;;;8.32;6.03;;;;;;;20.32;68.32;98073.19;2068042;28;20637;-58
2023/05/11 04:05:07;;;;;;;10.82;6.65;;;;;;;20.30;68.34;98065.31;2069772;28;20519;-51
2023/05/11 04:06:09;;;;;;;12.95;7.55;;;;;;;20.30;68.16;98073.41;2068506;28;20057;-59
2023/05/11 04:07:11;;;;;;;11.02;7.68;;;;;;;20.34;68.14;98075.63;2068678;28;20060;-59
2023/05/11 04:08:13;;;;;;;15.52;7.05;;;;;;;20.35;67.86;98072.72;2068787;28;20132;-56
2023/05/11 04:09:13;;;;;;;8.43;6.38;;;;;;;20.33;68.23;98069.44;2069293;28;20397;-56
2023/05/11 04:10:15;;;;;;;15.48;7.95;;;;;;;20.30;68.36;98073.41;2069535;28;20088;-51
2023/05/11 04:11:15;;;;;;;8.02;5.85;;;;;;;20.31;67.83;98071.56;2072193;28;20061;-56
2023/05/11 04:12:17;;;;;;;11.90;6.90;;;;;;;20.33;67.88;98072.13;2066267;28;20045;-57
2023/05/11 04:13:18;;;;;;;9.57;6.30;;;;;;;20.34;67.86;98067.56;2067403;28;22012;-57
2023/05/11 04:14:20;;;;;;;14.45;7.93;;;;;;;20.31;68.06;98075.06;2068946;28;20057;-48
2023/05/11 04:15:21;;;;;;;14.88;6.47;;;;;;;20.31;67.66;98076.94;2069381;28;20041;-52
2023/05/11 04:16:22;;;;;;;18.65;6.95;;;;;;;20.30;67.73;98076.09;2065845;28;20059;-52
2023/05/11 04:17:23;;;;;;;10.43;7.43;;;;;;;20.33;68.10;98076.69;2066351;28;20136;-51
2023/05/11 04:18:25;;;;;;;14.30;6.40;;;;;;;20.34;68.47;98079.19;2070158;28;20055;-57
2023/05/11 04:19:25;;;;;;;12.25;6.90;;;;;;;20.35;68.65;98072.72;2073348;28;20122;-55
2023/05/11 04:20:27;;;;;;;10.85;6.00;;;;;;;20.35;68.06;98074.59;2067703;28;20499;-52
2023/05/11 04:21:27;;;;;;;12.93;6.82;;;;;;;20.36;67.63;98074.38;2068329;28;20048;-54
2023/05/11 04:22:30;;;;;;;;;;;;;;;20.26;67.86;98082.19;2069911;28;20570;-59
2023/05/11 04:23:31;;;;;;;9.43;6.03;;;;;;;20.28;68.13;98078.22;2071714;28;19939;-57
2023/05/11 04:24:33;;;;;;;9.65;5.82;;;;;;;20.30;68.02;98077.97;2069477;28;20052;-52
2023/05/11 04:25:34;;;;;;;10.30;5.47;;;;;;;20.31;67.71;98072.38;2070172;28;20872;-53
2023/05/11 04:26:35;;;;;;;9.18;7.20;;;;;;;20.31;67.82;98082.34;2072178;28;20057;-53
2023/05/11 04:27:36;;;;;;;12.82;6.70;;;;;;;20.31;67.88;98083.16;2069778;28;20079;-54
2023/05/11 04:28:37;;;;;;;;;;;;;;;20.21;67.50;98082.84;2069680;28;20053;-53
2023/05/11 04:29:38;;;;;;;12.85;7.35;;;;;;;20.24;68.06;98082.41;2071617;28;19966;-55
2023/05/11 04:30:40;;;;;;;;;;;;;;;20.16;67.83;98084.59;2069709;28;20483;-54
2023/05/11 04:31:40;;;;;;;9.02;6.90;;;;;;;20.20;68.21;98089.31;2068592;28;19933;-54
2023/05/11 04:32:42;;;;;;;;;;;;;;;20.13;68.05;98085.03;2072507;28;20081;-54
2023/05/11 04:33:42;;;;;;;13.50;6.82;;;;;;;20.19;67.76;98095.72;2069336;28;19925;-53
2023/05/11 04:34:44;;;;;;;;;;;;;;;20.12;68.38;98092.31;2070486;28;20049;-48
2023/05/11 04:35:44;;;;;;;11.77;6.07;;;;;;;20.19;68.05;98082.25;2068708;28;19932;-54
2023/05/11 04:36:47;;;;;;;;;;;;;;;20.13;67.49;98083.16;2066929;28;20045;-54
2023/05/11 04:37:49;;;;;;;11.55;6.78;;;;;;;20.18;67.59;98087.88;2070347;28;19979;-50
2023/05/11 04:38:51;;;;;;;13.75;6.90;;;;;;;20.21;67.60;98087.44;2068143;28;20050;-56
2023/05/11 04:39:52;;;;;;;11.50;6.30;;;;;;;20.23;67.13;98088.03;2060435;28;20764;-57
2023/05/11 04:40:54;;;;;;;;;;;;;;;20.18;67.86;98087.88;2065613;28;20890;-51
2023/05/11 04:41:54;;;;;;;9.60;6.40;;;;;;;20.30;67.66;98086.88;2069073;28;20326;-62
2023/05/11 04:42:56;;;;;;;32.88;8.13;;;;;;;20.35;67.53;98088.06;2069033;28;20135;-57
2023/05/11 04:43:57;;;;;;;21.27;6.63;;;;;;;20.43;68.11;98093.16;2065975;28;21265;-59
2023/05/11 04:44:58;;;;;;;;;;;;;;;20.33;68.38;98085.59;2062382;28;20064;-55
2023/05/11 04:46:00;;;;;;;25.05;8.02;;;;;;;20.33;68.02;98090.16;2067066;28;19932;-55
2023/05/11 04:47:01;;;;;;;12.23;5.63;;;;;;;20.33;67.68;98090.97;2064953;28;24386;-56
2023/05/11 04:48:02;;;;;;;23.02;7.00;;;;;;;20.34;67.60;98089.94;2073214;28;20053;-53
2023/05/11 04:49:04;;;;;;;14.60;6.15;;;;;;;20.33;68.19;98090.16;2074819;28;20044;-56
2023/05/11 04:50:06;;;;;;;18.73;6.63;;;;;;;20.34;67.83;98092.66;2067185;28;20076;-60
2023/05/11 04:51:07;;;;;;;22.10;6.47;;;;;;;20.33;67.47;98090.16;2064836;28;20053;-56
2023/05/11 04:52:08;;;;;;;12.20;7.35;;;;;;;20.33;67.57;98095.56;2066232;28;20163;-57
2023/05/11 04:53:11;;;;;;;;;;;;;;;20.22;67.72;98092.56;2068551;28;20533;-59
2023/05/11 04:54:11;;;;;;;13.85;5.68;;;;;;;20.24;67.79;98097.75;2065665;28;19982;-55
2023/05/11 04:55:15;;;;;;;22.73;6.43;;;;;;;20.26;67.84;98092.97;2063031;28;20103;-49
2023/05/11 04:56:16;;;;;;;19.95;6.65;;;;;;;20.28;67.55;98089.00;2066469;28;20053;-56